createdAt,value
2017-04-17T05:26:34.158Z,22.84
2017-04-17T05:27:20.085Z,22.87
2017-04-17T05:28:33.236Z,22.89
2017-04-17T05:31:13.104Z,14.28
2017-04-17T05:32:26.799Z,10.89
2017-04-17T05:33:40.652Z,9.47
2017-04-17T05:34:54.743Z,8.7
2017-04-17T05:36:08.310Z,8.29
2017-04-17T05:37:21.707Z,8.03
2017-04-17T05:38:35.801Z,7.85
2017-04-17T05:39:49.214Z,7.74
2017-04-17T05:41:02.868Z,7.67
2017-04-17T05:42:16.361Z,7.66
2017-04-17T05:43:30.151Z,7.65
2017-04-17T05:44:43.884Z,7.67
2017-04-17T05:45:57.415Z,7.65
2017-04-17T05:47:11.187Z,7.61
2017-04-17T05:48:24.668Z,7.58
2017-04-17T05:49:38.090Z,7.55
2017-04-17T05:50:51.603Z,7.5
2017-04-17T05:52:05.058Z,7.45
2017-04-17T05:53:19.002Z,7.44
2017-04-17T05:54:33.070Z,7.45
2017-04-17T05:55:46.847Z,7.43
2017-04-17T05:57:00.224Z,7.41
2017-04-17T05:58:13.766Z,7.39
2017-04-17T05:59:27.152Z,7.39
2017-04-17T06:00:40.704Z,7.39
2017-04-17T06:01:54.124Z,7.41
2017-04-17T06:03:07.948Z,7.45
2017-04-17T06:04:21.338Z,7.48
2017-04-17T06:05:35.114Z,7.53
2017-04-17T06:06:48.907Z,7.56
2017-04-17T06:08:02.465Z,7.59
2017-04-17T06:09:15.917Z,7.63
2017-04-17T06:10:29.461Z,7.68
2017-04-17T06:11:43.374Z,7.7
2017-04-17T06:12:57.088Z,7.75
2017-04-17T06:14:10.801Z,7.77
2017-04-17T06:15:24.327Z,7.82
2017-04-17T06:16:37.782Z,7.85
2017-04-17T06:18:03.830Z,7.89
2017-04-17T06:19:17.218Z,7.93
2017-04-17T06:20:30.755Z,7.96
2017-04-17T06:21:44.150Z,8.01
2017-04-17T06:22:57.631Z,8.04
2017-04-17T06:24:11.100Z,8.06
2017-04-17T06:25:25.178Z,8.09
2017-04-17T06:26:38.596Z,8.13
2017-04-17T06:27:52.138Z,8.17
2017-04-17T06:29:05.573Z,8.19
2017-04-17T06:30:19.103Z,8.2
2017-04-17T06:31:32.762Z,8.2
2017-04-17T06:32:46.275Z,8.24
2017-04-17T06:33:59.717Z,8.26
2017-04-17T06:35:13.246Z,8.27
2017-04-17T06:36:26.722Z,8.3
2017-04-17T06:37:40.482Z,8.32
2017-04-17T06:38:54.068Z,8.32
2017-04-17T06:40:07.718Z,8.3
2017-04-17T06:41:21.155Z,8.3
2017-04-17T06:42:34.651Z,8.31
2017-04-17T06:43:48.192Z,8.33
2017-04-17T06:45:02.105Z,8.32
2017-04-17T06:46:15.517Z,8.33
2017-04-17T06:47:31.591Z,8.36
2017-04-17T06:48:45.299Z,8.39
2017-04-17T06:49:59.098Z,8.41
2017-04-17T06:51:13.560Z,8.41
2017-04-17T06:52:28.171Z,8.4
2017-04-17T06:53:41.857Z,8.35
2017-04-17T06:54:55.782Z,8.3
2017-04-17T06:56:09.360Z,8.28
2017-04-17T06:57:23.238Z,8.3
2017-04-17T06:58:36.654Z,8.33
2017-04-17T06:59:50.224Z,8.36
2017-04-17T07:01:03.681Z,8.43
2017-04-17T07:02:17.191Z,8.46
2017-04-17T07:03:30.578Z,8.5
2017-04-17T07:04:44.056Z,8.53
2017-04-17T07:05:58.089Z,8.55
2017-04-17T07:07:11.775Z,8.56
2017-04-17T07:08:25.183Z,8.59
2017-04-17T07:09:38.716Z,8.59
2017-04-17T07:10:52.470Z,8.58
2017-04-17T07:12:06.191Z,8.57
2017-04-17T07:13:19.596Z,8.58
2017-04-17T07:14:33.428Z,8.59
2017-04-17T07:15:46.825Z,8.6
2017-04-17T07:17:00.425Z,8.63
2017-04-17T07:18:14.160Z,8.66
2017-04-17T07:19:27.679Z,8.71
2017-04-17T07:20:41.382Z,8.72
2017-04-17T07:21:54.977Z,8.73
2017-04-17T07:23:08.380Z,8.74
2017-04-17T07:24:21.962Z,8.78
2017-04-17T07:25:35.894Z,8.82
2017-04-17T07:26:49.501Z,8.84
2017-04-17T07:28:03.039Z,8.85
2017-04-17T07:29:16.515Z,8.88
2017-04-17T07:30:29.962Z,8.89
2017-04-17T07:31:43.672Z,8.92
2017-04-17T07:32:57.459Z,8.94
2017-04-17T07:34:11.322Z,8.97
2017-04-17T07:35:24.838Z,8.98
2017-04-17T07:36:38.739Z,8.98
2017-04-17T07:37:52.287Z,8.97
2017-04-17T07:39:05.882Z,8.96
2017-04-17T07:40:19.255Z,8.96
2017-04-17T07:41:32.767Z,8.97
2017-04-17T07:42:46.211Z,8.95
2017-04-17T07:43:59.824Z,8.87
2017-04-17T07:45:13.352Z,8.8
2017-04-17T07:46:27.035Z,8.76
2017-04-17T07:47:40.754Z,8.72
2017-04-17T07:48:54.414Z,8.72
2017-04-17T07:50:20.872Z,8.71
2017-04-17T07:51:34.796Z,8.7
2017-04-17T07:52:48.207Z,8.71
2017-04-17T07:54:01.846Z,8.7
2017-04-17T07:55:15.259Z,8.67
2017-04-17T07:56:29.055Z,8.62
2017-04-17T07:57:43.613Z,8.6
2017-04-17T07:58:57.166Z,8.58
2017-04-17T08:00:10.858Z,8.52
2017-04-17T08:01:24.333Z,8.46
2017-04-17T08:02:38.153Z,8.33
2017-04-17T08:03:54.511Z,8.24
2017-04-17T08:05:07.932Z,8.21
2017-04-17T08:06:21.913Z,8.16
2017-04-17T08:07:35.657Z,8.14
2017-04-17T08:08:49.954Z,8.12
2017-04-17T08:10:03.472Z,8.13
2017-04-17T08:11:17.372Z,8.16
2017-04-17T08:12:30.782Z,8.18
2017-04-17T08:13:44.281Z,8.18
2017-04-17T08:14:57.880Z,8.22
2017-04-17T08:16:12.123Z,8.25
2017-04-17T08:17:26.187Z,8.3
2017-04-17T08:18:39.947Z,8.35
2017-04-17T08:19:53.375Z,8.39
2017-04-17T08:21:07.254Z,8.41
2017-04-17T08:22:21.005Z,8.45
2017-04-17T08:23:34.553Z,8.48
2017-04-17T08:24:47.929Z,8.5
2017-04-17T08:26:01.600Z,8.51
2017-04-17T08:27:14.983Z,8.53
2017-04-17T08:28:28.836Z,8.53
2017-04-17T08:29:42.889Z,8.5
2017-04-17T08:30:56.669Z,8.47
2017-04-17T08:32:10.072Z,8.46
2017-04-17T08:33:23.882Z,8.44
2017-04-17T08:34:37.323Z,8.4
2017-04-17T08:35:50.917Z,8.39
2017-04-17T08:37:04.751Z,8.41
2017-04-17T08:38:18.365Z,8.43
2017-04-17T08:39:32.225Z,8.43
2017-04-17T08:40:45.804Z,8.42
2017-04-17T08:41:59.330Z,8.4
2017-04-17T08:43:13.668Z,8.37
2017-04-17T08:44:27.264Z,8.37
2017-04-17T08:45:40.848Z,8.34
2017-04-17T08:46:54.609Z,8.27
2017-04-17T08:48:08.164Z,8.22
2017-04-17T08:49:21.592Z,8.17
2017-04-17T08:50:35.219Z,8.1
2017-04-17T08:51:48.648Z,8.07
2017-04-17T08:53:02.333Z,8.03
2017-04-17T08:54:15.719Z,7.97
2017-04-17T08:55:29.307Z,7.9
2017-04-17T08:56:42.795Z,7.88
2017-04-17T08:57:56.672Z,7.84
2017-04-17T08:59:10.592Z,7.78
2017-04-17T09:00:24.834Z,7.68
2017-04-17T09:01:38.556Z,7.6
2017-04-17T09:02:53.590Z,7.56
2017-04-17T09:04:07.297Z,7.57
2017-04-17T09:05:21.290Z,7.56
2017-04-17T09:06:35.291Z,7.59
2017-04-17T09:07:49.170Z,7.63
2017-04-17T09:09:02.972Z,7.69
2017-04-17T09:10:17.550Z,7.77
2017-04-17T09:11:31.670Z,7.78
2017-04-17T09:12:45.698Z,7.77
2017-04-17T09:13:59.701Z,7.77
2017-04-17T09:15:13.378Z,7.76
2017-04-17T09:16:26.973Z,7.74
2017-04-17T09:17:40.694Z,7.73
2017-04-17T09:18:54.380Z,7.75
2017-04-17T09:20:10.275Z,7.75
2017-04-17T09:21:24.527Z,7.69
2017-04-17T09:22:38.999Z,7.67
2017-04-17T09:23:52.920Z,7.69
2017-04-17T09:25:06.683Z,7.74
2017-04-17T09:26:20.300Z,7.76
2017-04-17T09:27:33.944Z,7.8
2017-04-17T09:28:47.937Z,7.84
2017-04-17T09:30:01.779Z,7.82
2017-04-17T09:31:15.179Z,7.85
2017-04-17T09:32:28.704Z,7.9
2017-04-17T09:33:42.771Z,7.99
2017-04-17T09:34:56.570Z,8.03
2017-04-17T09:36:10.421Z,8.03
2017-04-17T09:37:24.362Z,8.02
2017-04-17T09:38:37.934Z,8.01
2017-04-17T09:39:52.344Z,8
2017-04-17T09:41:06.256Z,8.04
2017-04-17T09:42:20.548Z,8.12
2017-04-17T09:43:35.188Z,8.27
2017-04-17T09:44:48.908Z,8.37
2017-04-17T09:46:02.358Z,8.43
2017-04-17T09:47:15.903Z,8.51
2017-04-17T09:48:30.616Z,8.59
2017-04-17T09:49:44.460Z,8.77
2017-04-17T09:50:58.048Z,8.94
2017-04-17T09:52:11.894Z,9.02
2017-04-17T09:53:25.735Z,9.06
2017-04-17T09:54:39.432Z,9.05
2017-04-17T09:55:53.856Z,9.09
2017-04-17T09:57:07.429Z,9.16
2017-04-17T09:58:21.468Z,9.18
2017-04-17T09:59:35.220Z,9.16
2017-04-17T10:00:50.109Z,9.03
2017-04-17T10:02:04.054Z,8.89
2017-04-17T10:03:17.741Z,8.73
2017-04-17T10:04:31.425Z,8.53
2017-04-17T10:05:45.117Z,8.33
2017-04-17T10:06:59.580Z,8.17
2017-04-17T10:08:13.883Z,8.05
2017-04-17T10:09:27.708Z,7.94
2017-04-17T10:10:41.149Z,7.91
2017-04-17T10:11:54.836Z,7.91
2017-04-17T10:13:08.500Z,7.9
2017-04-17T10:14:22.389Z,7.98
2017-04-17T10:15:35.983Z,8.01
2017-04-17T10:17:11.317Z,8.03
2017-04-17T10:18:26.051Z,8.1
2017-04-17T10:19:39.933Z,8.1
2017-04-17T10:20:53.971Z,8.08
2017-04-17T10:22:07.806Z,8.1
2017-04-17T10:23:21.398Z,8.15
2017-04-17T10:24:35.763Z,8.19
2017-04-17T10:25:49.919Z,8.22
2017-04-17T10:27:03.502Z,8.21
2017-04-17T10:28:18.024Z,8.14
2017-04-17T10:29:31.904Z,8.2
2017-04-17T10:30:46.010Z,8.22
2017-04-17T10:31:59.692Z,8.28
2017-04-17T10:33:13.656Z,8.43
2017-04-17T10:34:27.191Z,8.61
2017-04-17T10:35:53.220Z,8.81
2017-04-17T10:37:09.454Z,8.92
2017-04-17T10:38:23.668Z,9
2017-04-17T10:39:37.161Z,9.05
2017-04-17T10:40:50.810Z,9.15
2017-04-17T10:42:04.789Z,9.23
2017-04-17T10:43:18.613Z,9.35
2017-04-17T10:44:32.415Z,9.46
2017-04-17T10:45:46.443Z,9.54
2017-04-17T10:47:00.050Z,9.58
2017-04-17T10:48:13.670Z,9.59
2017-04-17T10:49:27.474Z,9.54
2017-04-17T10:50:41.009Z,9.46
2017-04-17T10:51:54.545Z,9.34
2017-04-17T10:53:30.757Z,9.19
2017-04-17T10:54:44.967Z,9.05
2017-04-17T10:55:58.833Z,8.98
2017-04-17T10:57:12.608Z,8.84
2017-04-17T10:58:26.092Z,8.7
2017-04-17T10:59:39.875Z,8.6
2017-04-17T11:00:53.413Z,8.5
2017-04-17T11:02:07.111Z,8.47
2017-04-17T11:03:20.756Z,8.52
2017-04-17T11:04:47.812Z,8.62
2017-04-17T11:06:01.488Z,8.82
2017-04-17T11:07:15.288Z,9.09
2017-04-17T11:08:28.944Z,9.42
2017-04-17T11:09:42.607Z,9.63
2017-04-17T11:10:56.838Z,9.87
2017-04-17T11:12:10.869Z,10.14
2017-04-17T11:13:24.830Z,10.4
2017-04-17T11:14:38.837Z,10.53
2017-04-17T11:15:52.424Z,10.52
2017-04-17T11:17:06.583Z,10.54
2017-04-17T11:18:20.223Z,10.5
2017-04-17T11:19:34.284Z,10.42
2017-04-17T11:20:48.187Z,10.37
2017-04-17T11:22:01.809Z,10.37
2017-04-17T11:23:15.766Z,10.35
2017-04-17T11:24:29.748Z,10.32
2017-04-17T11:25:48.374Z,10.33
2017-04-17T11:27:02.373Z,10.28
2017-04-17T11:28:16.226Z,10.33
2017-04-17T11:29:30.178Z,10.35
2017-04-17T11:30:44.099Z,10.27
2017-04-17T11:31:58.579Z,10.18
2017-04-17T11:33:12.064Z,10.13
2017-04-17T11:34:26.008Z,10.08
2017-04-17T11:35:39.483Z,10.12
2017-04-17T11:36:53.457Z,10.23
2017-04-17T11:38:06.918Z,10.32
2017-04-17T11:39:36.001Z,10.5
2017-04-17T11:40:50.468Z,10.54
2017-04-17T11:42:04.061Z,10.65
2017-04-17T11:43:19.249Z,10.72
2017-04-17T11:44:33.339Z,10.75
2017-04-17T11:45:47.911Z,10.78
2017-04-17T11:47:02.501Z,10.79
2017-04-17T11:48:16.178Z,10.75
2017-04-17T11:49:48.607Z,10.65
2017-04-17T11:51:02.131Z,10.62
2017-04-17T11:52:16.518Z,10.49
2017-04-17T11:53:30.179Z,10.35
2017-04-17T11:54:47.855Z,10.25
2017-04-17T11:56:01.799Z,10.21
2017-04-17T11:57:15.840Z,10.23
2017-04-17T11:58:29.901Z,10.42
2017-04-17T11:59:43.717Z,10.45
2017-04-17T12:00:57.486Z,10.49
2017-04-17T12:02:10.940Z,10.48
2017-04-17T12:03:24.550Z,10.46
2017-04-17T12:04:38.592Z,10.49
2017-04-17T12:05:52.275Z,10.49
2017-04-17T12:07:06.003Z,10.5
2017-04-17T12:08:19.681Z,10.51
2017-04-17T12:09:33.945Z,10.46
2017-04-17T12:10:47.933Z,10.46
2017-04-17T12:12:01.473Z,10.46
2017-04-17T12:13:15.209Z,10.45
2017-04-17T12:14:29.074Z,10.39
2017-04-17T12:15:43.692Z,10.39
2017-04-17T12:16:57.538Z,10.4
2017-04-17T12:18:11.105Z,10.34
2017-04-17T12:19:24.721Z,10.31
2017-04-17T12:20:38.621Z,10.24
2017-04-17T12:21:52.442Z,10.27
2017-04-17T12:23:06.107Z,10.35
2017-04-17T12:24:19.705Z,10.43
2017-04-17T12:25:33.599Z,10.54
2017-04-17T12:26:47.320Z,10.67
2017-04-17T12:28:01.213Z,10.8
2017-04-17T12:29:14.814Z,10.99
2017-04-17T12:30:28.514Z,11.22
2017-04-17T12:31:42.522Z,11.41
2017-04-17T12:32:56.250Z,11.54
2017-04-17T12:34:10.050Z,11.72
2017-04-17T12:35:23.992Z,11.87
2017-04-17T12:36:37.633Z,11.99
2017-04-17T12:37:51.659Z,12.11
2017-04-17T12:39:05.684Z,12.09
2017-04-17T12:40:20.111Z,12.08
2017-04-17T12:41:33.575Z,11.98
2017-04-17T12:42:47.644Z,11.73
2017-04-17T12:44:01.069Z,11.44
2017-04-17T12:45:23.910Z,11.16
2017-04-17T12:46:37.849Z,10.91
2017-04-17T12:47:51.862Z,10.79
2017-04-17T12:49:05.404Z,10.74
2017-04-17T12:50:19.593Z,10.7
2017-04-17T12:51:33.432Z,10.69
2017-04-17T12:52:47.353Z,10.62
2017-04-17T12:54:01.214Z,10.52
2017-04-17T12:55:14.865Z,10.44
2017-04-17T12:56:29.673Z,10.43
2017-04-17T12:57:43.270Z,10.5
2017-04-17T12:58:57.273Z,10.62
2017-04-17T13:00:11.902Z,10.64
2017-04-17T13:01:25.929Z,10.77
2017-04-17T13:04:55.899Z,11.01
2017-04-17T13:06:10.314Z,11.14
2017-04-17T13:07:25.023Z,11.25
2017-04-17T13:08:39.292Z,11.4
2017-04-17T13:09:52.851Z,11.38
2017-04-17T13:11:07.340Z,11.4
2017-04-17T13:12:23.392Z,11.36
2017-04-17T13:13:37.285Z,11.31
2017-04-17T13:14:51.242Z,11.27
2017-04-17T13:16:05.969Z,11.26
2017-04-17T13:17:20.035Z,11.28
2017-04-17T13:18:34.232Z,11.31
2017-04-17T13:20:08.302Z,11.33
2017-04-17T13:21:22.323Z,11.44
2017-04-17T13:22:36.850Z,11.47
2017-04-17T13:23:50.513Z,11.44
2017-04-17T13:25:04.800Z,11.43
2017-04-17T13:26:18.680Z,11.54
2017-04-17T13:27:32.400Z,11.68
2017-04-17T13:28:46.182Z,11.85
2017-04-17T13:30:00.057Z,11.94
2017-04-17T13:31:35.489Z,11.95
2017-04-17T13:32:49.565Z,11.92
2017-04-17T13:34:03.657Z,11.92
2017-04-17T13:35:26.660Z,11.91
2017-04-17T13:37:06.125Z,12
2017-04-17T13:38:20.229Z,12.13
2017-04-17T13:39:34.920Z,12.16
2017-04-17T13:40:48.712Z,12.17
2017-04-17T13:42:02.517Z,12.12
2017-04-17T13:43:16.674Z,12
2017-04-17T13:44:30.503Z,11.89
2017-04-17T13:45:44.453Z,11.82
2017-04-17T13:46:58.483Z,11.79
2017-04-17T13:48:12.930Z,11.77
2017-04-17T13:49:26.545Z,11.82
2017-04-17T13:50:40.983Z,11.9
2017-04-17T13:51:55.095Z,11.95
2017-04-17T13:53:09.703Z,11.95
2017-04-17T13:54:23.784Z,11.92
2017-04-17T13:55:37.714Z,11.89
2017-04-17T13:56:51.713Z,11.87
2017-04-17T13:58:05.364Z,11.88
2017-04-17T13:59:18.829Z,11.9
2017-04-17T14:00:33.439Z,11.84
2017-04-17T14:01:47.637Z,11.8
2017-04-17T14:03:01.216Z,11.83
2017-04-17T14:04:14.985Z,11.8
2017-04-17T14:05:28.879Z,11.74
2017-04-17T14:06:42.870Z,11.65
2017-04-17T14:07:57.536Z,11.64
2017-04-17T14:09:11.037Z,11.66
2017-04-17T14:10:24.934Z,11.64
2017-04-17T14:11:38.761Z,11.58
2017-04-17T14:12:53.378Z,11.48
2017-04-17T14:14:06.857Z,11.41
2017-04-17T14:15:21.622Z,11.36
2017-04-17T14:16:50.559Z,11.34
2017-04-17T14:18:04.459Z,11.36
2017-04-17T14:19:18.251Z,11.34
2017-04-17T14:20:32.151Z,11.35
2017-04-17T14:21:45.700Z,11.37
2017-04-17T14:23:00.262Z,11.4
2017-04-17T14:24:14.032Z,11.41
2017-04-17T14:25:27.809Z,11.36
2017-04-17T14:26:41.464Z,11.35
2017-04-17T14:27:55.099Z,11.38
2017-04-17T14:29:08.927Z,11.4
2017-04-17T14:30:25.618Z,11.4
2017-04-17T14:31:40.228Z,11.39
2017-04-17T14:32:54.735Z,11.38
2017-04-17T14:34:08.561Z,11.32
2017-04-17T14:35:22.408Z,11.25
2017-04-17T14:36:36.516Z,11.24
2017-04-17T14:38:06.051Z,11.23
2017-04-17T14:39:20.681Z,11.29
2017-04-17T14:40:34.603Z,11.37
2017-04-17T14:41:48.732Z,11.45
2017-04-17T14:43:02.485Z,11.49
2017-04-17T14:44:16.248Z,11.5
2017-04-17T14:45:29.757Z,11.56
2017-04-17T14:46:43.930Z,11.63
2017-04-17T14:47:57.728Z,11.7
2017-04-17T14:49:11.694Z,11.75
2017-04-17T14:50:25.616Z,11.73
2017-04-17T14:51:39.256Z,11.8
2017-04-17T14:52:52.704Z,11.91
2017-04-17T14:54:06.503Z,11.94
2017-04-17T14:55:20.236Z,11.97
